sensor_id;sensor_type;location;lat;lon;timestamp;temperature;humidity
44729;DHT22;30457;53.590;9.922;2023-02-14T00:01:35;10.40;57.10
44729;DHT22;30457;53.590;9.922;2023-02-14T00:06:09;10.40;56.90
44729;DHT22;30457;53.590;9.922;2023-02-14T00:10:34;10.40;56.80
44729;DHT22;30457;53.590;9.922;2023-02-14T00:15:00;10.40;56.70
44729;DHT22;30457;53.590;9.922;2023-02-14T00:19:45;10.30;56.70
44729;DHT22;30457;53.590;9.922;2023-02-14T00:24:13;10.30;56.60
44729;DHT22;30457;53.590;9.922;2023-02-14T00:28:39;10.30;56.70
44729;DHT22;30457;53.590;9.922;2023-02-14T00:33:04;10.20;56.70
44729;DHT22;30457;53.590;9.922;2023-02-14T00:37:30;10.20;56.60
44729;DHT22;30457;53.590;9.922;2023-02-14T00:41:55;10.20;56.60
44729;DHT22;30457;53.590;9.922;2023-02-14T00:46:22;10.20;56.80
44729;DHT22;30457;53.590;9.922;2023-02-14T00:50:48;10.20;56.80
44729;DHT22;30457;53.590;9.922;2023-02-14T00:55:13;10.20;57.00
44729;DHT22;30457;53.590;9.922;2023-02-14T00:59:39;10.20;57.00
44729;DHT22;30457;53.590;9.922;2023-02-14T01:04:05;10.20;56.80
44729;DHT22;30457;53.590;9.922;2023-02-14T01:08:32;10.10;56.70
44729;DHT22;30457;53.590;9.922;2023-02-14T01:12:58;10.10;56.80
44729;DHT22;30457;53.590;9.922;2023-02-14T01:17:24;10.10;56.80
44729;DHT22;30457;53.590;9.922;2023-02-14T01:21:49;10.10;56.80
44729;DHT22;30457;53.590;9.922;2023-02-14T01:26:16;10.10;56.90
44729;DHT22;30457;53.590;9.922;2023-02-14T01:30:41;10.10;57.00
44729;DHT22;30457;53.590;9.922;2023-02-14T01:35:09;10.10;57.00
44729;DHT22;30457;53.590;9.922;2023-02-14T01:39:35;10.10;56.90
44729;DHT22;30457;53.590;9.922;2023-02-14T01:44:06;10.10;57.00
44729;DHT22;30457;53.590;9.922;2023-02-14T01:48:32;10.10;57.10
44729;DHT22;30457;53.590;9.922;2023-02-14T01:53:02;10.10;57.60
44729;DHT22;30457;53.590;9.922;2023-02-14T01:57:35;10.10;56.80
44729;DHT22;30457;53.590;9.922;2023-02-14T02:02:05;10.00;56.80
44729;DHT22;30457;53.590;9.922;2023-02-14T02:06:37;10.00;56.90
44729;DHT22;30457;53.590;9.922;2023-02-14T02:11:04;10.00;56.80
44729;DHT22;30457;53.590;9.922;2023-02-14T02:15:34;10.00;57.00
44729;DHT22;30457;53.590;9.922;2023-02-14T02:25:13;9.90;56.90
44729;DHT22;30457;53.590;9.922;2023-02-14T02:54:37;9.80;56.90
44729;DHT22;30457;53.590;9.922;2023-02-14T02:59:17;9.80;56.90
44729;DHT22;30457;53.590;9.922;2023-02-14T03:03:55;9.80;57.10
44729;DHT22;30457;53.590;9.922;2023-02-14T03:08:41;9.80;57.10
44729;DHT22;30457;53.590;9.922;2023-02-14T03:13:46;9.70;57.30
44729;DHT22;30457;53.590;9.922;2023-02-14T03:23:19;9.70;57.30
44729;DHT22;30457;53.590;9.922;2023-02-14T03:27:51;9.70;57.30
44729;DHT22;30457;53.590;9.922;2023-02-14T03:32:28;9.70;57.50
44729;DHT22;30457;53.590;9.922;2023-02-14T03:37:12;9.70;57.50
44729;DHT22;30457;53.590;9.922;2023-02-14T03:41:45;9.70;57.40
44729;DHT22;30457;53.590;9.922;2023-02-14T03:46:22;9.60;57.40
44729;DHT22;30457;53.590;9.922;2023-02-14T03:50:50;9.60;57.30
44729;DHT22;30457;53.590;9.922;2023-02-14T03:55:21;9.60;57.50
44729;DHT22;30457;53.590;9.922;2023-02-14T03:59:49;9.60;57.60
44729;DHT22;30457;53.590;9.922;2023-02-14T04:04:17;9.50;57.50
44729;DHT22;30457;53.590;9.922;2023-02-14T04:08:44;9.50;57.60
44729;DHT22;30457;53.590;9.922;2023-02-14T04:13:10;9.50;57.80
44729;DHT22;30457;53.590;9.922;2023-02-14T04:17:35;9.50;57.90
44729;DHT22;30457;53.590;9.922;2023-02-14T04:22:20;9.50;57.90
44729;DHT22;30457;53.590;9.922;2023-02-14T04:26:45;9.50;57.80
44729;DHT22;30457;53.590;9.922;2023-02-14T04:31:30;9.50;57.90
44729;DHT22;30457;53.590;9.922;2023-02-14T04:35:56;9.50;57.90
44729;DHT22;30457;53.590;9.922;2023-02-14T04:40:21;9.40;57.90
44729;DHT22;30457;53.590;9.922;2023-02-14T04:44:47;9.40;57.70
44729;DHT22;30457;53.590;9.922;2023-02-14T04:49:12;9.40;57.80
44729;DHT22;30457;53.590;9.922;2023-02-14T04:53:38;9.40;57.90
44729;DHT22;30457;53.590;9.922;2023-02-14T04:58:04;9.40;58.00
44729;DHT22;30457;53.590;9.922;2023-02-14T05:02:30;9.40;58.20
44729;DHT22;30457;53.590;9.922;2023-02-14T05:06:56;9.40;58.40
44729;DHT22;30457;53.590;9.922;2023-02-14T05:11:22;9.40;58.50
44729;DHT22;30457;53.590;9.922;2023-02-14T05:15:48;9.40;58.50
44729;DHT22;30457;53.590;9.922;2023-02-14T05:20:13;9.40;58.50
44729;DHT22;30457;53.590;9.922;2023-02-14T05:24:39;9.40;58.60
44729;DHT22;30457;53.590;9.922;2023-02-14T05:29:05;9.50;58.60
44729;DHT22;30457;53.590;9.922;2023-02-14T05:33:30;9.50;58.50
44729;DHT22;30457;53.590;9.922;2023-02-14T05:37:56;9.50;58.40
44729;DHT22;30457;53.590;9.922;2023-02-14T05:42:21;9.50;58.50
44729;DHT22;30457;53.590;9.922;2023-02-14T05:46:47;9.50;58.50
44729;DHT22;30457;53.590;9.922;2023-02-14T05:51:13;9.50;58.40
44729;DHT22;30457;53.590;9.922;2023-02-14T05:55:38;9.60;58.40
44729;DHT22;30457;53.590;9.922;2023-02-14T06:00:06;9.60;58.40
44729;DHT22;30457;53.590;9.922;2023-02-14T06:04:37;9.60;58.40
44729;DHT22;30457;53.590;9.922;2023-02-14T06:09:03;9.60;58.50
44729;DHT22;30457;53.590;9.922;2023-02-14T06:13:28;9.60;58.30
44729;DHT22;30457;53.590;9.922;2023-02-14T06:17:55;9.60;58.30
44729;DHT22;30457;53.590;9.922;2023-02-14T06:22:21;9.60;58.30
44729;DHT22;30457;53.590;9.922;2023-02-14T06:26:47;9.60;58.20
44729;DHT22;30457;53.590;9.922;2023-02-14T06:31:16;9.60;58.30
44729;DHT22;30457;53.590;9.922;2023-02-14T06:35:42;9.60;58.40
44729;DHT22;30457;53.590;9.922;2023-02-14T06:40:08;9.70;58.60
44729;DHT22;30457;53.590;9.922;2023-02-14T06:44:34;9.70;58.60
44729;DHT22;30457;53.590;9.922;2023-02-14T06:48:59;9.70;58.60
44729;DHT22;30457;53.590;9.922;2023-02-14T06:53:25;9.70;58.50
44729;DHT22;30457;53.590;9.922;2023-02-14T06:57:51;9.70;58.50
44729;DHT22;30457;53.590;9.922;2023-02-14T07:02:16;9.70;58.50
44729;DHT22;30457;53.590;9.922;2023-02-14T07:06:44;9.70;58.60
44729;DHT22;30457;53.590;9.922;2023-02-14T07:11:09;9.70;58.80
44729;DHT22;30457;53.590;9.922;2023-02-14T07:15:35;9.70;58.90
44729;DHT22;30457;53.590;9.922;2023-02-14T07:20:01;9.70;58.80
44729;DHT22;30457;53.590;9.922;2023-02-14T07:24:27;9.70;58.90
44729;DHT22;30457;53.590;9.922;2023-02-14T07:28:53;9.70;59.00
44729;DHT22;30457;53.590;9.922;2023-02-14T07:33:18;9.80;59.00
44729;DHT22;30457;53.590;9.922;2023-02-14T07:37:44;9.80;59.10
44729;DHT22;30457;53.590;9.922;2023-02-14T07:42:09;9.80;59.10
44729;DHT22;30457;53.590;9.922;2023-02-14T07:46:36;9.80;59.00
44729;DHT22;30457;53.590;9.922;2023-02-14T07:51:02;9.90;59.10
44729;DHT22;30457;53.590;9.922;2023-02-14T07:55:27;9.90;59.10
44729;DHT22;30457;53.590;9.922;2023-02-14T07:59:53;9.90;59.20
44729;DHT22;30457;53.590;9.922;2023-02-14T08:04:18;10.00;59.20
44729;DHT22;30457;53.590;9.922;2023-02-14T08:08:44;10.10;59.30
44729;DHT22;30457;53.590;9.922;2023-02-14T08:13:10;10.10;59.30
44729;DHT22;30457;53.590;9.922;2023-02-14T08:17:36;10.20;59.30
44729;DHT22;30457;53.590;9.922;2023-02-14T08:22:03;10.30;59.30
44729;DHT22;30457;53.590;9.922;2023-02-14T08:26:28;10.40;59.10
44729;DHT22;30457;53.590;9.922;2023-02-14T08:30:54;10.40;59.00
44729;DHT22;30457;53.590;9.922;2023-02-14T08:35:20;10.40;59.00
44729;DHT22;30457;53.590;9.922;2023-02-14T08:39:45;10.50;59.00
44729;DHT22;30457;53.590;9.922;2023-02-14T08:44:11;10.60;58.80
44729;DHT22;30457;53.590;9.922;2023-02-14T08:53:09;10.70;58.80
44729;DHT22;30457;53.590;9.922;2023-02-14T08:57:35;10.80;58.80
44729;DHT22;30457;53.590;9.922;2023-02-14T09:02:01;10.90;58.70
44729;DHT22;30457;53.590;9.922;2023-02-14T09:06:26;11.00;58.60
44729;DHT22;30457;53.590;9.922;2023-02-14T09:10:52;11.10;58.50
44729;DHT22;30457;53.590;9.922;2023-02-14T09:15:18;11.20;58.50
44729;DHT22;30457;53.590;9.922;2023-02-14T09:19:43;11.30;58.40
44729;DHT22;30457;53.590;9.922;2023-02-14T09:24:09;11.40;58.40
44729;DHT22;30457;53.590;9.922;2023-02-14T09:28:35;11.60;58.30
44729;DHT22;30457;53.590;9.922;2023-02-14T09:33:01;11.70;58.10
44729;DHT22;30457;53.590;9.922;2023-02-14T09:37:29;11.80;58.10
44729;DHT22;30457;53.590;9.922;2023-02-14T09:51:38;12.20;57.40
44729;DHT22;30457;53.590;9.922;2023-02-14T10:01:17;12.40;57.20
44729;DHT22;30457;53.590;9.922;2023-02-14T10:05:53;12.60;56.80
44729;DHT22;30457;53.590;9.922;2023-02-14T10:10:39;12.70;56.80
44729;DHT22;30457;53.590;9.922;2023-02-14T10:15:16;12.80;56.50
44729;DHT22;30457;53.590;9.922;2023-02-14T10:19:46;12.80;56.20
44729;DHT22;30457;53.590;9.922;2023-02-14T10:29:16;13.00;55.90
44729;DHT22;30457;53.590;9.922;2023-02-14T10:33:50;13.00;56.20
44729;DHT22;30457;53.590;9.922;2023-02-14T10:52:47;13.20;55.40
44729;DHT22;30457;53.590;9.922;2023-02-14T10:57:17;13.20;55.50
44729;DHT22;30457;53.590;9.922;2023-02-14T11:01:46;13.30;55.90
44729;DHT22;30457;53.590;9.922;2023-02-14T11:06:11;13.30;55.40
44729;DHT22;30457;53.590;9.922;2023-02-14T11:10:37;13.30;55.50
44729;DHT22;30457;53.590;9.922;2023-02-14T11:19:38;13.30;55.50
44729;DHT22;30457;53.590;9.922;2023-02-14T11:24:31;13.40;55.70
44729;DHT22;30457;53.590;9.922;2023-02-14T11:29:00;13.40;55.10
44729;DHT22;30457;53.590;9.922;2023-02-14T11:33:40;13.50;55.40
44729;DHT22;30457;53.590;9.922;2023-02-14T11:38:41;13.60;54.90
44729;DHT22;30457;53.590;9.922;2023-02-14T11:47:35;13.70;55.30
44729;DHT22;30457;53.590;9.922;2023-02-14T11:52:09;13.80;55.10
44729;DHT22;30457;53.590;9.922;2023-02-14T12:01:30;14.00;54.60
44729;DHT22;30457;53.590;9.922;2023-02-14T12:05:56;14.10;54.70
44729;DHT22;30457;53.590;9.922;2023-02-14T12:10:33;14.10;54.70
44729;DHT22;30457;53.590;9.922;2023-02-14T12:24:39;14.30;54.70
44729;DHT22;30457;53.590;9.922;2023-02-14T12:29:27;14.50;54.20
44729;DHT22;30457;53.590;9.922;2023-02-14T12:33:55;14.50;54.60
44729;DHT22;30457;53.590;9.922;2023-02-14T12:38:29;14.60;54.70
44729;DHT22;30457;53.590;9.922;2023-02-14T12:58:02;14.90;53.90
44729;DHT22;30457;53.590;9.922;2023-02-14T13:07:27;15.00;53.90
44729;DHT22;30457;53.590;9.922;2023-02-14T13:12:27;15.10;53.40
44729;DHT22;30457;53.590;9.922;2023-02-14T13:21:36;15.30;53.50
44729;DHT22;30457;53.590;9.922;2023-02-14T13:30:35;15.50;53.50
44729;DHT22;30457;53.590;9.922;2023-02-14T13:35:03;15.60;53.20
44729;DHT22;30457;53.590;9.922;2023-02-14T13:39:36;15.70;53.00
44729;DHT22;30457;53.590;9.922;2023-02-14T13:44:02;15.70;52.90
44729;DHT22;30457;53.590;9.922;2023-02-14T13:48:30;15.70;52.60
44729;DHT22;30457;53.590;9.922;2023-02-14T13:52:55;15.80;52.40
44729;DHT22;30457;53.590;9.922;2023-02-14T13:57:27;15.70;52.20
44729;DHT22;30457;53.590;9.922;2023-02-14T14:01:56;15.70;52.00
44729;DHT22;30457;53.590;9.922;2023-02-14T14:20:53;15.60;51.70
44729;DHT22;30457;53.590;9.922;2023-02-14T14:30:05;15.50;51.90
44729;DHT22;30457;53.590;9.922;2023-02-14T14:34:31;15.40;51.80
44729;DHT22;30457;53.590;9.922;2023-02-14T14:38:56;15.40;52.70
44729;DHT22;30457;53.590;9.922;2023-02-14T14:43:34;15.30;52.20
44729;DHT22;30457;53.590;9.922;2023-02-14T14:48:08;15.30;52.20
44729;DHT22;30457;53.590;9.922;2023-02-14T14:52:39;15.20;52.40
44729;DHT22;30457;53.590;9.922;2023-02-14T14:57:06;15.20;52.40
44729;DHT22;30457;53.590;9.922;2023-02-14T15:01:35;15.10;52.60
44729;DHT22;30457;53.590;9.922;2023-02-14T15:10:38;15.10;52.70
44729;DHT22;30457;53.590;9.922;2023-02-14T15:15:05;15.00;52.70
44729;DHT22;30457;53.590;9.922;2023-02-14T15:19:37;15.00;52.70
44729;DHT22;30457;53.590;9.922;2023-02-14T15:24:12;15.00;52.60
44729;DHT22;30457;53.590;9.922;2023-02-14T15:28:38;14.90;52.70
44729;DHT22;30457;53.590;9.922;2023-02-14T15:33:05;14.90;52.90
44729;DHT22;30457;53.590;9.922;2023-02-14T15:37:32;14.90;52.90
44729;DHT22;30457;53.590;9.922;2023-02-14T15:41:58;14.80;52.80
44729;DHT22;30457;53.590;9.922;2023-02-14T15:46:33;14.80;52.80
44729;DHT22;30457;53.590;9.922;2023-02-14T15:51:01;14.80;52.90
44729;DHT22;30457;53.590;9.922;2023-02-14T15:55:29;14.70;52.90
44729;DHT22;30457;53.590;9.922;2023-02-14T15:59:55;14.60;52.90
44729;DHT22;30457;53.590;9.922;2023-02-14T16:04:26;14.60;53.00
44729;DHT22;30457;53.590;9.922;2023-02-14T16:08:55;14.50;53.00
44729;DHT22;30457;53.590;9.922;2023-02-14T16:13:32;14.50;53.00
44729;DHT22;30457;53.590;9.922;2023-02-14T16:17:59;14.40;53.00
44729;DHT22;30457;53.590;9.922;2023-02-14T16:22:28;14.30;53.10
44729;DHT22;30457;53.590;9.922;2023-02-14T16:26:56;14.20;53.10
44729;DHT22;30457;53.590;9.922;2023-02-14T16:31:22;14.20;53.20
44729;DHT22;30457;53.590;9.922;2023-02-14T16:35:49;14.10;53.20
44729;DHT22;30457;53.590;9.922;2023-02-14T16:40:15;14.00;53.40
44729;DHT22;30457;53.590;9.922;2023-02-14T16:44:43;13.90;53.30
44729;DHT22;30457;53.590;9.922;2023-02-14T16:49:08;13.80;53.40
44729;DHT22;30457;53.590;9.922;2023-02-14T16:53:34;13.70;53.50
44729;DHT22;30457;53.590;9.922;2023-02-14T16:58:00;13.60;53.50
44729;DHT22;30457;53.590;9.922;2023-02-14T17:02:27;13.50;53.60
44729;DHT22;30457;53.590;9.922;2023-02-14T17:06:56;13.50;53.80
44729;DHT22;30457;53.590;9.922;2023-02-14T17:11:24;13.40;53.90
44729;DHT22;30457;53.590;9.922;2023-02-14T17:15:51;13.30;54.00
44729;DHT22;30457;53.590;9.922;2023-02-14T17:20:17;13.20;54.60
44729;DHT22;30457;53.590;9.922;2023-02-14T17:24:46;13.20;54.20
44729;DHT22;30457;53.590;9.922;2023-02-14T17:29:11;13.10;54.20
44729;DHT22;30457;53.590;9.922;2023-02-14T17:33:37;13.00;54.20
44729;DHT22;30457;53.590;9.922;2023-02-14T17:38:03;13.00;54.30
44729;DHT22;30457;53.590;9.922;2023-02-14T17:42:33;12.90;54.20
44729;DHT22;30457;53.590;9.922;2023-02-14T17:46:58;12.80;54.30
44729;DHT22;30457;53.590;9.922;2023-02-14T17:51:24;12.70;54.40
44729;DHT22;30457;53.590;9.922;2023-02-14T17:55:49;12.70;54.60
44729;DHT22;30457;53.590;9.922;2023-02-14T18:00:18;12.60;54.60
44729;DHT22;30457;53.590;9.922;2023-02-14T18:04:44;12.50;54.70
44729;DHT22;30457;53.590;9.922;2023-02-14T18:09:09;12.40;54.90
44729;DHT22;30457;53.590;9.922;2023-02-14T18:13:36;12.30;55.00
44729;DHT22;30457;53.590;9.922;2023-02-14T18:18:02;12.30;55.20
44729;DHT22;30457;53.590;9.922;2023-02-14T18:22:27;12.20;55.70
44729;DHT22;30457;53.590;9.922;2023-02-14T18:26:53;12.20;55.00
44729;DHT22;30457;53.590;9.922;2023-02-14T18:31:19;12.10;55.00
44729;DHT22;30457;53.590;9.922;2023-02-14T18:35:46;12.00;55.00
44729;DHT22;30457;53.590;9.922;2023-02-14T18:40:12;11.90;55.40
44729;DHT22;30457;53.590;9.922;2023-02-14T18:44:44;11.80;55.70
44729;DHT22;30457;53.590;9.922;2023-02-14T18:49:09;11.70;56.10
44729;DHT22;30457;53.590;9.922;2023-02-14T18:53:38;11.70;56.30
44729;DHT22;30457;53.590;9.922;2023-02-14T18:58:04;11.70;56.60
44729;DHT22;30457;53.590;9.922;2023-02-14T19:02:34;11.60;56.70
44729;DHT22;30457;53.590;9.922;2023-02-14T19:06:59;11.60;56.90
44729;DHT22;30457;53.590;9.922;2023-02-14T19:11:27;11.60;57.10
44729;DHT22;30457;53.590;9.922;2023-02-14T19:16:00;11.60;57.10
44729;DHT22;30457;53.590;9.922;2023-02-14T19:20:32;11.60;57.30
44729;DHT22;30457;53.590;9.922;2023-02-14T19:24:58;11.60;57.20
44729;DHT22;30457;53.590;9.922;2023-02-14T19:29:23;11.50;57.90
44729;DHT22;30457;53.590;9.922;2023-02-14T19:33:49;11.50;57.40
44729;DHT22;30457;53.590;9.922;2023-02-14T19:38:15;11.50;57.40
44729;DHT22;30457;53.590;9.922;2023-02-14T19:42:40;11.40;57.40
44729;DHT22;30457;53.590;9.922;2023-02-14T19:47:06;11.40;57.50
44729;DHT22;30457;53.590;9.922;2023-02-14T19:51:34;11.30;57.50
44729;DHT22;30457;53.590;9.922;2023-02-14T19:56:03;11.30;57.40
44729;DHT22;30457;53.590;9.922;2023-02-14T20:00:28;11.20;57.30
44729;DHT22;30457;53.590;9.922;2023-02-14T20:04:54;11.20;57.30
44729;DHT22;30457;53.590;9.922;2023-02-14T20:09:24;11.20;57.30
44729;DHT22;30457;53.590;9.922;2023-02-14T20:13:51;11.10;57.30
44729;DHT22;30457;53.590;9.922;2023-02-14T20:18:17;11.00;57.30
44729;DHT22;30457;53.590;9.922;2023-02-14T20:22:42;11.00;57.40
44729;DHT22;30457;53.590;9.922;2023-02-14T20:27:08;10.90;57.40
44729;DHT22;30457;53.590;9.922;2023-02-14T20:31:36;10.80;57.40
44729;DHT22;30457;53.590;9.922;2023-02-14T20:36:04;10.80;57.20
44729;DHT22;30457;53.590;9.922;2023-02-14T20:40:30;10.70;57.20
44729;DHT22;30457;53.590;9.922;2023-02-14T20:44:56;10.60;57.40
44729;DHT22;30457;53.590;9.922;2023-02-14T20:49:23;10.60;57.50
44729;DHT22;30457;53.590;9.922;2023-02-14T20:53:49;10.50;57.40
44729;DHT22;30457;53.590;9.922;2023-02-14T20:58:15;10.40;57.50
44729;DHT22;30457;53.590;9.922;2023-02-14T21:02:40;10.40;57.60
44729;DHT22;30457;53.590;9.922;2023-02-14T21:07:06;10.30;57.60
44729;DHT22;30457;53.590;9.922;2023-02-14T21:11:34;10.30;57.80
44729;DHT22;30457;53.590;9.922;2023-02-14T21:16:01;10.20;57.60
44729;DHT22;30457;53.590;9.922;2023-02-14T21:20:27;10.10;57.60
44729;DHT22;30457;53.590;9.922;2023-02-14T21:24:53;10.00;57.70
44729;DHT22;30457;53.590;9.922;2023-02-14T21:29:19;10.00;57.70
44729;DHT22;30457;53.590;9.922;2023-02-14T21:33:47;9.90;57.50
44729;DHT22;30457;53.590;9.922;2023-02-14T21:38:13;9.90;57.50
44729;DHT22;30457;53.590;9.922;2023-02-14T21:42:39;9.80;57.20
44729;DHT22;30457;53.590;9.922;2023-02-14T21:47:04;9.70;57.30
44729;DHT22;30457;53.590;9.922;2023-02-14T21:51:31;9.60;57.50
44729;DHT22;30457;53.590;9.922;2023-02-14T21:56:07;9.50;57.50
44729;DHT22;30457;53.590;9.922;2023-02-14T22:00:34;9.50;57.70
44729;DHT22;30457;53.590;9.922;2023-02-14T22:05:00;9.40;57.80
44729;DHT22;30457;53.590;9.922;2023-02-14T22:09:25;9.40;57.90
44729;DHT22;30457;53.590;9.922;2023-02-14T22:13:51;9.30;58.00
44729;DHT22;30457;53.590;9.922;2023-02-14T22:18:17;9.30;58.10
44729;DHT22;30457;53.590;9.922;2023-02-14T22:22:42;9.20;57.90
44729;DHT22;30457;53.590;9.922;2023-02-14T22:27:08;9.10;58.20
44729;DHT22;30457;53.590;9.922;2023-02-14T22:31:41;9.10;57.70
44729;DHT22;30457;53.590;9.922;2023-02-14T22:36:08;9.00;57.60
44729;DHT22;30457;53.590;9.922;2023-02-14T22:40:33;9.00;57.60
44729;DHT22;30457;53.590;9.922;2023-02-14T22:44:59;8.90;57.50
44729;DHT22;30457;53.590;9.922;2023-02-14T22:49:25;8.80;57.60
44729;DHT22;30457;53.590;9.922;2023-02-14T22:53:53;8.80;58.00
44729;DHT22;30457;53.590;9.922;2023-02-14T22:58:18;8.70;58.10
44729;DHT22;30457;53.590;9.922;2023-02-14T23:02:44;8.70;58.10
44729;DHT22;30457;53.590;9.922;2023-02-14T23:07:10;8.60;57.90
44729;DHT22;30457;53.590;9.922;2023-02-14T23:11:38;8.50;58.00
44729;DHT22;30457;53.590;9.922;2023-02-14T23:16:04;8.50;58.20
44729;DHT22;30457;53.590;9.922;2023-02-14T23:20:51;8.40;58.30
44729;DHT22;30457;53.590;9.922;2023-02-14T23:25:35;8.40;58.70
44729;DHT22;30457;53.590;9.922;2023-02-14T23:30:01;8.30;59.10
44729;DHT22;30457;53.590;9.922;2023-02-14T23:34:29;8.30;59.60
44729;DHT22;30457;53.590;9.922;2023-02-14T23:38:55;8.40;59.90
44729;DHT22;30457;53.590;9.922;2023-02-14T23:43:21;8.40;60.00
44729;DHT22;30457;53.590;9.922;2023-02-14T23:47:47;8.40;60.10
44729;DHT22;30457;53.590;9.922;2023-02-14T23:52:13;8.40;60.10
44729;DHT22;30457;53.590;9.922;2023-02-14T23:56:39;8.50;60.30
